createdAt,value
2022-09-24T00:01:34.045Z,100034.19
2022-09-24T00:04:06.168Z,99962.78
2022-09-24T00:06:38.161Z,100031.91
2022-09-24T00:09:06.941Z,100029.41
2022-09-24T00:11:37.301Z,99978.97
2022-09-24T00:14:07.082Z,100030.16
2022-09-24T00:16:37.097Z,100016.47
2022-09-24T00:19:06.583Z,100000.63
2022-09-24T00:21:37.643Z,100013.66
2022-09-24T00:24:09.194Z,99992.31
2022-09-24T00:26:50.620Z,100021.09
2022-09-24T00:29:21.244Z,100031.19
2022-09-24T00:31:51.846Z,100032.69
2022-09-24T00:34:21.743Z,100018.69
2022-09-24T00:36:51.089Z,100000.34
2022-09-24T00:39:20.012Z,100018.75
2022-09-24T00:41:50.565Z,100009.84
2022-09-24T00:44:55.036Z,100013.13
2022-09-24T00:47:37.024Z,100021.09
2022-09-24T00:50:19.527Z,100007.22
2022-09-24T00:52:53.246Z,100009.25
2022-09-24T00:55:23.766Z,100011.41
2022-09-24T00:57:57.965Z,99979.25
2022-09-24T01:00:27.908Z,99995.47
2022-09-24T01:03:02.081Z,100005.22
2022-09-24T01:05:30.906Z,99999.69
2022-09-24T01:08:01.672Z,100007.72
2022-09-24T01:10:51.170Z,99992.88
2022-09-24T01:13:44.852Z,99982.94
2022-09-24T01:16:25.546Z,100007.03
2022-09-24T01:19:02.305Z,100003.31
2022-09-24T01:21:40.453Z,99996.09
2022-09-24T01:24:40.472Z,100005.13
2022-09-24T01:27:15.544Z,100004.25
2022-09-24T01:30:02.526Z,99993.84
2022-09-24T01:32:37.441Z,99993.56
2022-09-24T01:35:16.056Z,99999.41
2022-09-24T01:37:50.699Z,100005.09
2022-09-24T01:40:23.208Z,100013.66
2022-09-24T01:42:54.594Z,100005.97
2022-09-24T01:45:26.874Z,99908.00
2022-09-24T01:47:55.624Z,100011.28
2022-09-24T01:50:26.671Z,99990.38
2022-09-24T01:52:59.703Z,100008.66
2022-09-24T01:55:32.447Z,100004.31
2022-09-24T01:58:06.657Z,99941.25
2022-09-24T02:00:40.718Z,100001.22
2022-09-24T02:03:14.512Z,100006.13
2022-09-24T02:05:51.032Z,99978.78
2022-09-24T02:08:23.052Z,100003.31
2022-09-24T02:10:57.386Z,100013.50
2022-09-24T02:13:31.513Z,100004.16
2022-09-24T02:16:05.995Z,100003.94
2022-09-24T02:18:40.477Z,100015.44
2022-09-24T02:21:14.670Z,100017.16
2022-09-24T02:23:49.015Z,100012.56
2022-09-24T02:26:17.852Z,100018.38
2022-09-24T02:28:46.730Z,100017.88
2022-09-24T02:31:20.831Z,100016.31
2022-09-24T02:34:09.576Z,100023.19
2022-09-24T02:36:40.995Z,100019.34
2022-09-24T02:39:09.856Z,100017.88
2022-09-24T02:41:38.793Z,100011.09
2022-09-24T02:44:07.744Z,100027.75
2022-09-24T02:46:39.340Z,99959.91
2022-09-24T02:49:08.282Z,100024.28
2022-09-24T02:51:37.360Z,100030.94
2022-09-24T02:54:06.729Z,100030.59
2022-09-24T02:56:35.876Z,100003.84
2022-09-24T02:59:05.616Z,100026.50
2022-09-24T03:01:35.487Z,100033.75
2022-09-24T03:04:06.002Z,100033.13
2022-09-24T03:06:34.861Z,100034.47
2022-09-24T03:09:04.263Z,100039.56
2022-09-24T03:11:34.080Z,99961.00
2022-09-24T03:14:03.117Z,100025.59
2022-09-24T03:16:32.047Z,100031.19
2022-09-24T03:19:05.106Z,100038.22
2022-09-24T03:21:36.698Z,100018.56
2022-09-24T03:24:05.591Z,100026.44
2022-09-24T03:26:34.483Z,100026.59
2022-09-24T03:29:03.234Z,100022.13
2022-09-24T03:31:31.209Z,100028.50
2022-09-24T03:34:00.217Z,99946.00
2022-09-24T03:36:29.133Z,99993.31
2022-09-24T03:38:59.454Z,100027.41
2022-09-24T03:41:29.369Z,100034.13
2022-09-24T03:43:58.251Z,99963.63
2022-09-24T03:46:30.190Z,100034.81
2022-09-24T03:49:00.678Z,100025.50
2022-09-24T03:51:29.740Z,100035.09
2022-09-24T03:53:59.883Z,100032.88
2022-09-24T03:56:28.724Z,100030.91
2022-09-24T03:58:58.815Z,100036.63
2022-09-24T04:01:35.612Z,100027.16
2022-09-24T04:04:06.195Z,100033.78
2022-09-24T04:06:35.363Z,100040.81
2022-09-24T04:09:08.107Z,100044.50
2022-09-24T04:11:36.977Z,100033.94
2022-09-24T04:14:06.086Z,100039.44
2022-09-24T04:16:35.086Z,100016.16
2022-09-24T04:19:04.273Z,100011.34
2022-09-24T04:21:33.130Z,100036.25
2022-09-24T04:24:02.345Z,100025.63
2022-09-24T04:26:32.396Z,100001.41
2022-09-24T04:29:02.760Z,100045.03
2022-09-24T04:31:33.487Z,100041.25
2022-09-24T04:34:02.925Z,100047.56
2022-09-24T04:36:31.790Z,100010.59
2022-09-24T04:39:00.556Z,100048.91
2022-09-24T04:41:29.444Z,100042.56
2022-09-24T04:43:59.682Z,100050.03
2022-09-24T04:46:30.140Z,100051.88
2022-09-24T04:48:58.850Z,100039.53
2022-09-24T04:51:27.733Z,100031.44
2022-09-24T04:53:56.439Z,100056.72
2022-09-24T04:56:25.298Z,100041.09
2022-09-24T04:58:54.503Z,100048.59
2022-09-24T05:01:30.089Z,100044.31
2022-09-24T05:03:58.925Z,100051.91
2022-09-24T05:06:30.837Z,100042.00
2022-09-24T05:09:03.840Z,100041.25
2022-09-24T05:11:32.787Z,100034.31
2022-09-24T05:14:03.242Z,100040.31
2022-09-24T05:16:33.625Z,100044.69
2022-09-24T05:19:11.158Z,100041.03
2022-09-24T05:21:40.461Z,100046.16
2022-09-24T05:24:09.627Z,100053.41
2022-09-24T05:26:56.327Z,100048.53
2022-09-24T05:29:25.255Z,100057.00
2022-09-24T05:31:55.418Z,100047.63
2022-09-24T05:34:24.189Z,100051.75
2022-09-24T05:36:53.137Z,100032.34
2022-09-24T05:39:24.923Z,100048.84
2022-09-24T05:42:04.498Z,100024.06
2022-09-24T05:44:38.286Z,100048.00
2022-09-24T05:47:10.723Z,100036.97
2022-09-24T05:49:43.902Z,100049.75
2022-09-24T05:52:13.481Z,100043.16
2022-09-24T05:54:42.435Z,100037.03
2022-09-24T05:57:16.879Z,100042.94
2022-09-24T05:59:46.352Z,100049.72
2022-09-24T06:02:17.103Z,99984.16
2022-09-24T06:04:52.146Z,100031.94
2022-09-24T06:07:22.913Z,100035.91
2022-09-24T06:09:53.611Z,100020.47
2022-09-24T06:12:23.664Z,100048.16
2022-09-24T06:14:54.312Z,100053.78
2022-09-24T06:17:26.850Z,100018.78
2022-09-24T06:19:58.137Z,99981.31
2022-09-24T06:22:32.081Z,100052.41
2022-09-24T06:25:01.278Z,100067.00
2022-09-24T06:27:30.632Z,100052.81
2022-09-24T06:30:04.852Z,100064.41
2022-09-24T06:32:38.093Z,100071.50
2022-09-24T06:35:07.801Z,100077.22
2022-09-24T06:37:38.107Z,100065.91
2022-09-24T06:40:09.124Z,100074.66
2022-09-24T06:42:38.407Z,100080.13
2022-09-24T06:45:09.120Z,100078.34
2022-09-24T06:47:40.670Z,100075.13
2022-09-24T06:50:10.705Z,100077.47
2022-09-24T06:52:49.653Z,100078.88
2022-09-24T06:55:22.730Z,100083.16
2022-09-24T06:57:52.031Z,100082.56
2022-09-24T07:00:25.003Z,100083.06
2022-09-24T07:02:55.661Z,100081.44
2022-09-24T07:05:24.491Z,100088.19
2022-09-24T07:07:57.007Z,100083.97
2022-09-24T07:10:27.956Z,100087.44
2022-09-24T07:13:03.451Z,100091.41
2022-09-24T07:15:32.794Z,100086.56
2022-09-24T07:18:08.745Z,100092.00
2022-09-24T07:20:43.648Z,100068.09
2022-09-24T07:23:13.485Z,100100.38
2022-09-24T07:25:48.285Z,100096.13
2022-09-24T07:28:23.198Z,100097.94
2022-09-24T07:30:58.450Z,100100.31
2022-09-24T07:33:28.926Z,100067.94
2022-09-24T07:35:57.885Z,100075.53
2022-09-24T07:38:27.118Z,100105.97
2022-09-24T07:40:59.448Z,100103.56
2022-09-24T07:43:28.598Z,100109.53
2022-09-24T07:45:58.468Z,100099.38
2022-09-24T07:48:29.029Z,100100.47
2022-09-24T07:50:59.312Z,100109.09
2022-09-24T07:53:28.321Z,100118.59
2022-09-24T07:56:04.927Z,100104.72
2022-09-24T07:58:35.376Z,100097.25
2022-09-24T08:01:14.535Z,100102.69
2022-09-24T08:03:48.205Z,100114.22
2022-09-24T08:06:22.729Z,100055.84
2022-09-24T08:08:56.075Z,100110.59
2022-09-24T08:11:29.735Z,100117.72
2022-09-24T08:13:58.896Z,100116.13
2022-09-24T08:16:30.173Z,100085.94
2022-09-24T08:19:01.127Z,100103.97
2022-09-24T08:21:31.018Z,100112.44
2022-09-24T08:24:02.721Z,100116.97
2022-09-24T08:26:36.844Z,100121.72
2022-09-24T08:29:08.811Z,100101.88
2022-09-24T08:31:38.383Z,100106.97
2022-09-24T08:34:08.695Z,100125.44
2022-09-24T08:36:42.615Z,100145.00
2022-09-24T08:39:17.873Z,100132.41
2022-09-24T08:42:11.248Z,100134.13
2022-09-24T08:45:03.658Z,100130.00
2022-09-24T08:47:37.601Z,100114.78
2022-09-24T08:50:17.586Z,100123.06
2022-09-24T08:53:04.624Z,100122.78
2022-09-24T08:55:38.738Z,100121.09
2022-09-24T08:58:22.706Z,100128.38
2022-09-24T09:00:58.936Z,100090.09
2022-09-24T09:03:36.585Z,100095.41
2022-09-24T09:06:13.698Z,100130.81
2022-09-24T09:09:06.268Z,100122.19
2022-09-24T09:11:39.053Z,100123.66
2022-09-24T09:14:14.884Z,100122.56
2022-09-24T09:16:50.575Z,100102.25
2022-09-24T09:19:23.349Z,100117.75
2022-09-24T09:21:58.356Z,100109.50
2022-09-24T09:24:36.614Z,100099.47
2022-09-24T09:27:14.958Z,100126.53
2022-09-24T09:29:46.449Z,100116.50
2022-09-24T09:32:30.710Z,100122.25
2022-09-24T09:35:07.766Z,100107.53
2022-09-24T09:37:45.137Z,100120.59
2022-09-24T09:40:31.990Z,100115.28
2022-09-24T09:43:04.021Z,100125.03
2022-09-24T09:45:39.269Z,100118.75
2022-09-24T09:48:12.950Z,100079.44
2022-09-24T09:50:45.580Z,100112.38
2022-09-24T09:53:24.169Z,100115.31
2022-09-24T09:55:54.869Z,100097.66
2022-09-24T09:58:25.479Z,100108.19
2022-09-24T10:01:03.771Z,100103.31
2022-09-24T10:03:35.373Z,100110.06
2022-09-24T10:06:07.798Z,100110.63
2022-09-24T10:08:38.116Z,100098.00
2022-09-24T10:11:15.952Z,100103.00
2022-09-24T10:13:45.540Z,100043.41
2022-09-24T10:16:16.347Z,100114.88
2022-09-24T10:18:48.973Z,100095.31
2022-09-24T10:21:30.519Z,100102.19
2022-09-24T10:24:02.731Z,100102.56
2022-09-24T10:26:39.818Z,100097.50
2022-09-24T10:29:33.565Z,100078.97
2022-09-24T10:32:03.659Z,100115.47
2022-09-24T10:34:32.689Z,100101.19
2022-09-24T10:37:08.701Z,100110.13
2022-09-24T10:39:41.070Z,100106.44
2022-09-24T10:42:25.131Z,100100.50
2022-09-24T10:44:55.412Z,100117.28
2022-09-24T10:47:28.848Z,100120.78
2022-09-24T10:50:05.876Z,100118.44
2022-09-24T10:52:45.975Z,100118.84
2022-09-24T10:55:47.411Z,100123.03
2022-09-24T10:58:30.141Z,100117.22
2022-09-24T11:01:13.361Z,100118.47
2022-09-24T11:04:19.282Z,100117.06
2022-09-24T11:07:08.238Z,100126.56
2022-09-24T11:09:48.865Z,100114.06
2022-09-24T11:12:31.667Z,100124.09
2022-09-24T11:15:14.711Z,100110.97
2022-09-24T11:17:55.179Z,100112.72
2022-09-24T11:20:31.007Z,100125.34
2022-09-24T11:23:24.644Z,100123.59
2022-09-24T11:26:04.211Z,100116.91
2022-09-24T11:28:56.762Z,100117.53
2022-09-24T11:31:35.581Z,100108.31
2022-09-24T11:34:21.334Z,100117.34
2022-09-24T11:37:03.189Z,100108.91
2022-09-24T11:39:47.906Z,100110.28
2022-09-24T11:42:24.001Z,100119.16
2022-09-24T11:45:24.613Z,100118.91
2022-09-24T11:48:07.385Z,100116.06
2022-09-24T11:50:50.021Z,100100.09
2022-09-24T11:53:30.727Z,100126.66
2022-09-24T11:56:03.406Z,100128.50
2022-09-24T11:58:37.063Z,100156.72
2022-09-24T12:01:10.296Z,100169.38
2022-09-24T12:03:46.089Z,100164.84
2022-09-24T12:06:21.544Z,100159.22
2022-09-24T12:08:56.931Z,100164.63
2022-09-24T12:11:32.151Z,100158.78
2022-09-24T12:14:07.033Z,100144.06
2022-09-24T12:16:40.286Z,100146.53
2022-09-24T12:19:19.164Z,100144.84
2022-09-24T12:21:50.315Z,100138.09
2022-09-24T12:24:25.840Z,100126.44
2022-09-24T12:26:58.428Z,100137.41
2022-09-24T12:30:02.985Z,100141.53
2022-09-24T12:32:57.199Z,100088.59
2022-09-24T12:35:42.921Z,100138.50
2022-09-24T12:38:17.574Z,100134.31
2022-09-24T12:41:18.426Z,100126.94
2022-09-24T12:43:53.137Z,100134.72
2022-09-24T12:46:24.706Z,100125.16
2022-09-24T12:48:56.181Z,100117.63
2022-09-24T12:51:25.492Z,100125.13
2022-09-24T12:54:08.239Z,100126.22
2022-09-24T12:56:37.379Z,100130.84
2022-09-24T12:59:06.279Z,100104.59
2022-09-24T13:01:35.973Z,100139.88
2022-09-24T13:04:29.352Z,100117.50
2022-09-24T13:06:58.451Z,100129.47
2022-09-24T13:09:38.502Z,100056.41
2022-09-24T13:12:22.243Z,100104.16
2022-09-24T13:14:58.297Z,100134.16
2022-09-24T13:17:27.600Z,100131.22
2022-09-24T13:20:01.652Z,100134.56
2022-09-24T13:22:32.029Z,100134.03
2022-09-24T13:25:20.995Z,100126.44
2022-09-24T13:28:03.291Z,100132.91
2022-09-24T13:30:40.136Z,100109.34
2022-09-24T13:33:24.273Z,100125.25
2022-09-24T13:36:05.844Z,100106.72
2022-09-24T13:38:39.108Z,100125.88
2022-09-24T13:41:23.923Z,100119.09
2022-09-24T13:43:57.654Z,100045.78
2022-09-24T13:46:28.183Z,100107.16
2022-09-24T13:49:01.668Z,100118.75
2022-09-24T13:51:34.624Z,100125.63
2022-09-24T13:54:13.103Z,100105.22
2022-09-24T13:56:42.189Z,100102.47
2022-09-24T13:59:13.646Z,100114.34
2022-09-24T14:01:44.673Z,100124.78
2022-09-24T14:04:20.669Z,100125.53
2022-09-24T14:06:53.336Z,100113.19
2022-09-24T14:09:30.131Z,100115.88
2022-09-24T14:12:00.826Z,100117.50
2022-09-24T14:14:31.667Z,100136.19
2022-09-24T14:17:11.155Z,100129.91
2022-09-24T14:19:40.110Z,100132.59
2022-09-24T14:22:17.951Z,100069.50
2022-09-24T14:24:55.433Z,100139.09
2022-09-24T14:27:26.580Z,100145.34
2022-09-24T14:29:59.046Z,100130.91
2022-09-24T14:32:30.914Z,100129.69
2022-09-24T14:35:01.976Z,100152.06
2022-09-24T14:37:34.386Z,100146.78
2022-09-24T14:40:06.966Z,100167.66
2022-09-24T14:42:41.066Z,100165.28
2022-09-24T14:45:18.306Z,100174.06
2022-09-24T14:47:47.960Z,100160.91
2022-09-24T14:50:35.751Z,100152.50
2022-09-24T14:53:14.070Z,100151.44
2022-09-24T14:55:46.482Z,100155.44
2022-09-24T14:58:36.311Z,100159.09
2022-09-24T15:01:14.038Z,100163.69
2022-09-24T15:03:46.287Z,100149.13
2022-09-24T15:06:20.554Z,100163.19
2022-09-24T15:09:00.817Z,100174.22
2022-09-24T15:11:32.846Z,100179.97
2022-09-24T15:14:13.513Z,100186.97
2022-09-24T15:16:42.958Z,100145.97
2022-09-24T15:19:22.500Z,100187.75
2022-09-24T15:21:53.036Z,100184.38
2022-09-24T15:24:23.661Z,100172.75
2022-09-24T15:27:02.816Z,100192.97
2022-09-24T15:29:31.695Z,100182.38
2022-09-24T15:32:01.019Z,100188.09
2022-09-24T15:34:30.117Z,100170.69
2022-09-24T15:37:00.473Z,100189.31
2022-09-24T15:39:32.094Z,100176.28
2022-09-24T15:42:00.995Z,100198.63
2022-09-24T15:44:33.887Z,100200.72
2022-09-24T15:47:03.006Z,100204.28
2022-09-24T15:49:32.778Z,100190.31
2022-09-24T15:52:04.202Z,100189.97
2022-09-24T15:54:34.638Z,100193.47
2022-09-24T15:57:04.411Z,100196.81
2022-09-24T15:59:33.951Z,100210.16
2022-09-24T16:02:12.280Z,100196.81
2022-09-24T16:04:41.487Z,100204.09
2022-09-24T16:07:10.781Z,100193.56
2022-09-24T16:09:41.419Z,100200.22
2022-09-24T16:12:13.533Z,100208.72
2022-09-24T16:14:42.812Z,100193.22
2022-09-24T16:17:11.861Z,100204.59
2022-09-24T16:19:41.534Z,100190.78
2022-09-24T16:22:10.624Z,100199.50
2022-09-24T16:24:41.051Z,100200.22
2022-09-24T16:27:11.022Z,100210.16
2022-09-24T16:29:40.408Z,100167.97
2022-09-24T16:32:09.317Z,100199.69
2022-09-24T16:34:38.363Z,100164.78
2022-09-24T16:37:08.225Z,100204.72
2022-09-24T16:39:37.422Z,100173.16
2022-09-24T16:42:08.395Z,100204.13
2022-09-24T16:44:37.936Z,100201.75
2022-09-24T16:47:06.816Z,100208.25
2022-09-24T16:49:35.897Z,100214.38
2022-09-24T16:52:04.999Z,100211.50
2022-09-24T16:54:34.000Z,100216.38
2022-09-24T16:57:03.646Z,100214.34
2022-09-24T16:59:34.431Z,100211.66
2022-09-24T17:02:03.815Z,100214.31
2022-09-24T17:04:34.216Z,100206.97
2022-09-24T17:07:03.810Z,100207.78
2022-09-24T17:09:50.384Z,100221.28
2022-09-24T17:12:19.700Z,100209.38
2022-09-24T17:14:50.140Z,100211.16
2022-09-24T17:17:18.967Z,100203.25
2022-09-24T17:19:47.759Z,100209.22
2022-09-24T17:22:16.498Z,100210.63
2022-09-24T17:24:45.744Z,100218.03
2022-09-24T17:27:15.290Z,100215.28
2022-09-24T17:29:45.122Z,100206.69
2022-09-24T17:32:15.507Z,100222.53
2022-09-24T17:34:46.062Z,100216.47
2022-09-24T17:37:15.050Z,100216.94
2022-09-24T17:39:44.143Z,100208.47
2022-09-24T17:42:13.239Z,100199.50
2022-09-24T17:44:42.396Z,100224.59
2022-09-24T17:47:11.310Z,100209.22
2022-09-24T17:49:41.577Z,100219.75
2022-09-24T17:52:10.482Z,100213.34
2022-09-24T17:54:39.735Z,100210.91
2022-09-24T17:57:08.716Z,100209.00
2022-09-24T17:59:37.826Z,100226.41
2022-09-24T18:02:07.552Z,100241.34
2022-09-24T18:04:38.502Z,100227.38
2022-09-24T18:07:08.805Z,100234.91
2022-09-24T18:09:37.834Z,100235.03
2022-09-24T18:12:07.774Z,100224.13
2022-09-24T18:14:37.747Z,100232.59
2022-09-24T18:17:08.358Z,100229.66
2022-09-24T18:19:37.433Z,100234.28
2022-09-24T18:22:06.864Z,100240.25
2022-09-24T18:24:37.495Z,100228.13
2022-09-24T18:27:06.997Z,100224.91
2022-09-24T18:29:37.598Z,100219.38
2022-09-24T18:32:07.563Z,100238.19
2022-09-24T18:34:37.133Z,100229.78
2022-09-24T18:37:06.246Z,100230.03
2022-09-24T18:39:37.266Z,100226.63
2022-09-24T18:42:06.590Z,100228.53
2022-09-24T18:44:36.038Z,100228.97
2022-09-24T18:47:05.664Z,100237.78
2022-09-24T18:49:36.339Z,100239.94
2022-09-24T18:52:05.508Z,100228.88
2022-09-24T18:54:34.651Z,100240.31
2022-09-24T18:57:05.220Z,100224.81
2022-09-24T18:59:38.899Z,100225.13
2022-09-24T19:02:08.870Z,100238.53
2022-09-24T19:04:38.228Z,100218.31
2022-09-24T19:07:08.729Z,100232.19
2022-09-24T19:09:38.221Z,100242.81
2022-09-24T19:12:09.579Z,100240.59
2022-09-24T19:14:39.273Z,100243.75
2022-09-24T19:17:08.147Z,100228.84
2022-09-24T19:19:37.444Z,100239.97
2022-09-24T19:22:08.079Z,100225.19
2022-09-24T19:24:38.305Z,100235.81
2022-09-24T19:27:08.792Z,100239.09
2022-09-24T19:29:38.210Z,100229.38
2022-09-24T19:32:07.967Z,100240.72
2022-09-24T19:34:37.673Z,100236.56
2022-09-24T19:37:07.587Z,100228.38
2022-09-24T19:39:37.740Z,100248.03
2022-09-24T19:42:09.503Z,100247.66
2022-09-24T19:44:38.983Z,100240.97
2022-09-24T19:47:08.518Z,100237.09
2022-09-24T19:49:37.662Z,100249.22
2022-09-24T19:52:07.762Z,100257.94
2022-09-24T19:54:37.913Z,100257.72
2022-09-24T19:57:08.552Z,100255.06
2022-09-24T19:59:37.432Z,100255.28
2022-09-24T20:02:06.458Z,100156.16
2022-09-24T20:04:35.890Z,100255.50
2022-09-24T20:07:06.097Z,100196.34
2022-09-24T20:09:35.486Z,100258.69
2022-09-24T20:12:04.940Z,100236.72
2022-09-24T20:14:35.313Z,100257.94
2022-09-24T20:17:05.228Z,100226.44
2022-09-24T20:19:34.861Z,100261.09
2022-09-24T20:22:07.484Z,100270.94
2022-09-24T20:24:37.700Z,100267.88
2022-09-24T20:27:24.339Z,100275.63
2022-09-24T20:29:54.770Z,100276.84
2022-09-24T20:32:27.933Z,100264.00
2022-09-24T20:34:56.721Z,100264.47
2022-09-24T20:37:25.474Z,100275.00
2022-09-24T20:39:54.330Z,100265.19
2022-09-24T20:42:23.264Z,100287.19
2022-09-24T20:44:52.676Z,100286.94
2022-09-24T20:47:23.072Z,100281.88
2022-09-24T20:49:51.946Z,100284.06
2022-09-24T20:52:21.046Z,100282.31
2022-09-24T20:54:49.863Z,100285.56
2022-09-24T20:57:19.076Z,100272.34
2022-09-24T20:59:48.241Z,100274.56
2022-09-24T21:02:17.588Z,100281.53
2022-09-24T21:04:48.343Z,100286.34
2022-09-24T21:07:17.853Z,100286.59
2022-09-24T21:09:46.842Z,100293.63
2022-09-24T21:12:15.539Z,100264.56
2022-09-24T21:14:44.935Z,100291.75
2022-09-24T21:18:39.795Z,100291.41
2022-09-24T21:21:12.400Z,100283.56
2022-09-24T21:23:41.442Z,100289.91
2022-09-24T21:26:12.254Z,100290.66
2022-09-24T21:28:45.267Z,100287.94
2022-09-24T21:31:14.815Z,100250.41
2022-09-24T21:33:49.883Z,100292.56
2022-09-24T21:36:21.428Z,100284.66
2022-09-24T21:38:55.387Z,100219.28
2022-09-24T21:41:26.182Z,100288.50
2022-09-24T21:43:56.641Z,100291.56
2022-09-24T21:46:27.663Z,100301.03
2022-09-24T21:48:56.942Z,100273.88
2022-09-24T21:51:32.278Z,100202.28
2022-09-24T21:54:03.573Z,100299.59
2022-09-24T21:56:35.115Z,100300.69
2022-09-24T21:59:26.597Z,100300.47
2022-09-24T22:01:56.358Z,100299.19
2022-09-24T22:04:25.099Z,100303.56
2022-09-24T22:06:55.488Z,100314.38
2022-09-24T22:09:24.887Z,100288.72
2022-09-24T22:11:53.766Z,100296.25
2022-09-24T22:14:22.558Z,100305.66
2022-09-24T22:16:51.474Z,100309.47
2022-09-24T22:19:20.592Z,100300.34
2022-09-24T22:21:49.430Z,100269.66
2022-09-24T22:24:19.554Z,100307.56
2022-09-24T22:26:48.443Z,100306.06
2022-09-24T22:29:17.487Z,100308.81
2022-09-24T22:31:46.168Z,100307.09
2022-09-24T22:34:32.108Z,100230.81
2022-09-24T22:37:01.095Z,100303.13
2022-09-24T22:39:31.524Z,100303.31
2022-09-24T22:42:00.697Z,100303.38
2022-09-24T22:44:29.650Z,100301.22
2022-09-24T22:46:58.397Z,100298.34
2022-09-24T22:49:27.437Z,100304.31
2022-09-24T22:51:56.442Z,100302.41
2022-09-24T22:54:25.443Z,100305.31
2022-09-24T22:56:56.092Z,100303.59
2022-09-24T22:59:25.580Z,100280.41
2022-09-24T23:01:54.761Z,100311.34
2022-09-24T23:04:24.361Z,100281.25
2022-09-24T23:06:53.217Z,100304.03
2022-09-24T23:09:22.015Z,100292.09
2022-09-24T23:11:51.692Z,100275.97
2022-09-24T23:14:22.105Z,100286.69
2022-09-24T23:16:51.217Z,100311.75
2022-09-24T23:19:21.551Z,100313.69
2022-09-24T23:21:50.542Z,100296.38
2022-09-24T23:24:21.994Z,100290.63
2022-09-24T23:26:51.487Z,100291.44
2022-09-24T23:29:21.603Z,100291.97
2022-09-24T23:31:51.093Z,100289.97
2022-09-24T23:34:20.392Z,100286.19
2022-09-24T23:36:49.252Z,100300.09
2022-09-24T23:39:18.139Z,100276.91
2022-09-24T23:41:46.861Z,100292.50
2022-09-24T23:44:15.684Z,100275.53
2022-09-24T23:46:45.774Z,100292.63
2022-09-24T23:49:14.998Z,100288.28
2022-09-24T23:51:44.211Z,100295.28
2022-09-24T23:54:13.298Z,100302.75
2022-09-24T23:56:42.238Z,100295.97
2022-09-24T23:59:11.071Z,100269.28
